Time;durP1;ratioP1;P1;durP2;ratioP2;P2;SDS_P1;SDS_P2;PMS_P1;PMS_P2;Temp;Humidity;BMP_temperature;BMP_pressure;BME280_temperature;BME280_humidity;BME280_pressure;Samples;Min_cycle;Max_cycle;Signal;HPM_P1;HPM_P2
2023/06/03 00:02:09;;;;;;;20.25;9.27;;;15.90;99.90;;;;;;5051943;28;20381;-83
2023/06/03 00:04:41;;;;;;;16.02;8.45;;;15.90;99.90;;;;;;5052632;28;20048;-84
2023/06/03 00:07:07;;;;;;;19.70;9.57;;;15.90;99.90;;;;;;5054740;28;20033;-83
2023/06/03 00:09:33;;;;;;;21.35;8.80;;;15.80;99.90;;;;;;5051559;28;20021;-82
2023/06/03 00:11:59;;;;;;;17.30;9.95;;;15.80;99.90;;;;;;5054650;28;20025;-83
2023/06/03 00:14:25;;;;;;;19.83;9.15;;;15.80;99.90;;;;;;5043717;28;20507;-83
2023/06/03 00:16:52;;;;;;;17.88;10.20;;;15.80;99.90;;;;;;5055062;28;20032;-83
2023/06/03 00:19:18;;;;;;;19.25;10.13;;;15.70;99.90;;;;;;5067352;28;20035;-83
2023/06/03 00:21:49;;;;;;;20.15;10.50;;;15.70;99.90;;;;;;5063817;28;20020;-82
2023/06/03 00:24:19;;;;;;;19.08;9.48;;;15.70;99.90;;;;;;5057966;28;20036;-82
2023/06/03 00:26:45;;;;;;;20.73;10.45;;;15.70;99.90;;;;;;5056170;28;20032;-82
2023/06/03 00:29:11;;;;;;;16.20;8.77;;;15.60;99.90;;;;;;5055973;28;20032;-83
2023/06/03 00:31:37;;;;;;;17.35;9.43;;;15.60;99.90;;;;;;5053820;28;20025;-83
2023/06/03 00:34:02;;;;;;;18.40;9.43;;;15.60;99.90;;;;;;5055021;28;20029;-83
2023/06/03 00:36:28;;;;;;;25.08;10.88;;;15.50;99.90;;;;;;5062783;28;20370;-82
2023/06/03 00:38:54;;;;;;;15.88;9.60;;;15.50;99.90;;;;;;5056232;28;20029;-83
2023/06/03 00:41:19;;;;;;;23.60;10.13;;;15.50;99.90;;;;;;5057847;28;20489;-82
2023/06/03 00:43:45;;;;;;;19.35;11.30;;;15.50;99.90;;;;;;5057679;28;20029;-83
2023/06/03 00:46:13;;;;;;;18.13;10.32;;;15.50;99.90;;;;;;5055375;28;20048;-83
2023/06/03 00:48:39;;;;;;;19.83;10.68;;;15.50;99.90;;;;;;5058254;28;20031;-83
2023/06/03 00:51:06;;;;;;;24.08;11.05;;;15.50;99.90;;;;;;5057942;28;20025;-83
2023/06/03 00:53:32;;;;;;;19.67;11.63;;;15.50;99.90;;;;;;5056427;28;20120;-82
2023/06/03 00:55:58;;;;;;;23.13;11.23;;;15.40;99.90;;;;;;5058748;28;20108;-82
2023/06/03 00:58:23;;;;;;;18.30;10.57;;;15.40;99.90;;;;;;5052426;28;20079;-83
2023/06/03 01:00:49;;;;;;;16.90;10.07;;;15.40;99.90;;;;;;5056091;28;20108;-82
2023/06/03 01:03:19;;;;;;;22.98;10.88;;;15.40;99.90;;;;;;5059656;28;20055;-82
2023/06/03 01:05:50;;;;;;;26.52;11.25;;;15.30;99.90;;;;;;5052912;28;20408;-82
2023/06/03 01:08:51;;;;;;;18.38;10.07;;;15.30;99.90;;;;;;5055065;28;20036;-83
2023/06/03 01:11:39;;;;;;;18.95;10.23;;;15.30;99.90;;;;;;5056934;28;20025;-82
2023/06/03 01:14:31;;;;;;;19.52;11.60;;;15.30;99.90;;;;;;5058779;28;20025;-82
2023/06/03 01:16:58;;;;;;;18.35;11.13;;;15.20;99.90;;;;;;5055957;28;20021;-81
2023/06/03 01:19:38;;;;;;;19.45;11.48;;;15.20;99.90;;;;;;5052649;28;20033;-82
2023/06/03 01:22:11;;;;;;;25.75;12.85;;;15.20;99.90;;;;;;5054339;28;20021;-81
2023/06/03 01:24:37;;;;;;;24.58;12.13;;;15.10;99.90;;;;;;5058342;28;20358;-82
2023/06/03 01:27:03;;;;;;;18.50;10.95;;;15.10;99.90;;;;;;5058682;28;20539;-81
2023/06/03 01:29:29;;;;;;;27.23;12.25;;;15.10;99.90;;;;;;5054954;28;20124;-82
2023/06/03 01:31:57;;;;;;;20.45;11.48;;;15.00;99.90;;;;;;5055371;28;20509;-81
2023/06/03 01:34:23;;;;;;;20.67;9.82;;;15.00;99.90;;;;;;5055841;28;20033;-81
2023/06/03 01:36:49;;;;;;;17.63;11.25;;;15.00;99.90;;;;;;5046333;28;20446;-82
2023/06/03 01:39:15;;;;;;;20.85;10.85;;;15.00;99.90;;;;;;5054915;28;20119;-81
2023/06/03 01:41:44;;;;;;;18.38;10.48;;;14.90;99.90;;;;;;5059230;28;20086;-82
2023/06/03 01:44:10;;;;;;;21.48;12.05;;;14.90;99.90;;;;;;5054648;28;20028;-81
2023/06/03 01:46:36;;;;;;;20.10;11.90;;;14.90;99.90;;;;;;5054908;28;20021;-81
2023/06/03 01:49:06;;;;;;;16.90;10.25;;;14.90;99.90;;;;;;5058430;28;20091;-81
2023/06/03 01:51:31;;;;;;;20.55;10.65;;;14.80;99.90;;;;;;5056961;28;20037;-81
2023/06/03 01:53:57;;;;;;;18.88;12.57;;;14.80;99.90;;;;;;5058368;28;20006;-80
2023/06/03 01:56:23;;;;;;;17.48;11.30;;;14.80;99.90;;;;;;5057493;28;20108;-80
2023/06/03 01:58:48;;;;;;;21.38;10.88;;;14.80;99.90;;;;;;5054805;28;20383;-80
2023/06/03 02:01:14;;;;;;;18.73;12.27;;;14.80;99.90;;;;;;5058140;28;20540;-81
2023/06/03 02:03:40;;;;;;;18.05;11.25;;;14.70;99.90;;;;;;5055693;28;20424;-81
2023/06/03 02:06:06;;;;;;;19.33;11.25;;;14.70;99.90;;;;;;5059868;28;20025;-80
2023/06/03 02:08:31;;;;;;;20.13;10.95;;;14.70;99.90;;;;;;5056951;28;20037;-80
2023/06/03 02:10:57;;;;;;;17.98;10.82;;;14.70;99.90;;;;;;5063031;28;20036;-81
2023/06/03 02:13:23;;;;;;;23.75;11.68;;;14.70;99.90;;;;;;5063276;28;20036;-80
2023/06/03 02:15:48;;;;;;;22.33;11.00;;;14.60;99.90;;;;;;5060597;28;20037;-80
2023/06/03 02:18:17;;;;;;;24.00;11.43;;;14.70;99.90;;;;;;5055790;28;20095;-80
2023/06/03 02:20:42;;;;;;;21.90;11.80;;;14.60;99.90;;;;;;5061873;28;20028;-80
2023/06/03 02:23:10;;;;;;;17.95;10.88;;;14.60;99.90;;;;;;5061685;28;20021;-81
2023/06/03 02:25:36;;;;;;;21.02;11.02;;;14.60;99.90;;;;;;5063502;28;20029;-80
2023/06/03 02:28:06;;;;;;;20.17;11.95;;;14.50;99.90;;;;;;5057906;28;20055;-80
2023/06/03 02:30:31;;;;;;;16.13;10.07;;;14.50;99.90;;;;;;5059118;28;20028;-80
2023/06/03 02:32:57;;;;;;;18.90;10.48;;;14.50;99.90;;;;;;5055509;28;20017;-80
2023/06/03 02:35:23;;;;;;;21.33;12.10;;;14.50;99.90;;;;;;5058031;28;20037;-80
2023/06/03 02:37:48;;;;;;;24.35;10.85;;;14.50;99.90;;;;;;5059562;28;20489;-80
2023/06/03 02:40:14;;;;;;;20.70;11.00;;;14.50;99.90;;;;;;5065158;28;20558;-79
2023/06/03 02:42:40;;;;;;;16.67;9.80;;;14.40;99.90;;;;;;5059724;28;20025;-79
2023/06/03 02:45:06;;;;;;;18.70;11.60;;;14.40;99.90;;;;;;5060661;28;20039;-79
2023/06/03 02:47:32;;;;;;;19.00;11.52;;;14.40;99.90;;;;;;5057539;28;20014;-79
2023/06/03 02:49:58;;;;;;;20.83;11.45;;;14.40;99.90;;;;;;5057601;28;20077;-79
2023/06/03 02:52:23;;;;;;;17.73;11.13;;;14.30;99.90;;;;;;5061516;28;20056;-79
2023/06/03 02:54:49;;;;;;;18.02;11.05;;;14.20;99.90;;;;;;5057187;28;20025;-80
2023/06/03 02:57:15;;;;;;;20.63;11.10;;;14.20;99.90;;;;;;5061716;28;20032;-80
2023/06/03 02:59:42;;;;;;;18.60;10.88;;;14.20;99.90;;;;;;5058805;28;20401;-80
2023/06/03 03:02:11;;;;;;;21.17;11.90;;;14.20;99.90;;;;;;5060067;28;20469;-80
2023/06/03 03:04:36;;;;;;;19.13;11.05;;;14.20;99.90;;;;;;5061484;28;20393;-79
2023/06/03 03:07:07;;;;;;;16.23;10.90;;;14.10;99.90;;;;;;5057766;28;20031;-80
2023/06/03 03:09:33;;;;;;;17.55;11.90;;;14.10;99.90;;;;;;5062069;28;20029;-80
2023/06/03 03:11:59;;;;;;;17.52;10.35;;;14.10;99.90;;;;;;5041398;28;20065;-81
2023/06/03 03:14:25;;;;;;;17.98;10.65;;;14.10;99.90;;;;;;5063263;28;20045;-81
2023/06/03 03:16:51;;;;;;;23.48;11.70;;;14.10;99.90;;;;;;5057304;28;20029;-80
2023/06/03 03:19:17;;;;;;;18.90;10.00;;;14.10;99.90;;;;;;5064776;28;20039;-80
2023/06/03 03:21:43;;;;;;;15.75;10.30;;;14.10;99.90;;;;;;5058323;28;20017;-80
2023/06/03 03:24:08;;;;;;;18.08;10.75;;;14.10;99.90;;;;;;5056609;28;20021;-80
2023/06/03 03:26:34;;;;;;;19.10;10.73;;;14.10;99.90;;;;;;5058213;28;20032;-80
2023/06/03 03:29:00;;;;;;;17.10;10.45;;;14.10;99.90;;;;;;5057014;28;20047;-80
2023/06/03 03:31:26;;;;;;;19.13;11.07;;;14.10;99.90;;;;;;5057289;28;20128;-79
2023/06/03 03:33:52;;;;;;;19.42;12.32;;;14.00;99.90;;;;;;5039668;28;20031;-79
2023/06/03 03:36:28;;;;;;;16.65;10.90;;;14.00;99.90;;;;;;5059947;28;20033;-79
2023/06/03 03:39:03;;;;;;;21.02;10.90;;;14.10;99.90;;;;;;5062758;28;20033;-80
2023/06/03 03:41:30;;;;;;;17.60;9.93;;;14.00;99.90;;;;;;5041510;28;20428;-79
2023/06/03 03:43:56;;;;;;;21.33;10.85;;;14.00;99.90;;;;;;5060587;28;20107;-79
2023/06/03 03:46:22;;;;;;;21.35;11.27;;;14.00;99.90;;;;;;5059127;28;20474;-79
2023/06/03 03:48:47;;;;;;;19.30;12.07;;;14.00;99.90;;;;;;5042580;28;20100;-79
2023/06/03 03:51:13;;;;;;;16.60;9.68;;;14.00;99.90;;;;;;5059783;28;20056;-79
2023/06/03 03:53:46;;;;;;;19.17;10.90;;;14.00;99.90;;;;;;5055114;28;20489;-79
2023/06/03 03:56:20;;;;;;;18.65;10.35;;;14.00;99.90;;;;;;5059924;28;20460;-79
2023/06/03 03:58:49;;;;;;;15.77;11.25;;;14.00;99.90;;;;;;5057714;28;20036;-79
2023/06/03 04:01:22;;;;;;;21.40;11.13;;;14.00;99.90;;;;;;5057615;28;22110;-79
2023/06/03 04:03:52;;;;;;;17.20;11.02;;;14.00;99.90;;;;;;5064935;28;20029;-78
2023/06/03 04:06:27;;;;;;;17.85;11.35;;;14.00;99.90;;;;;;5043601;28;20032;-79
2023/06/03 04:08:54;;;;;;;20.75;10.55;;;13.90;99.90;;;;;;5047241;28;20074;-79
2023/06/03 04:11:30;;;;;;;17.92;10.40;;;14.00;99.90;;;;;;5061375;28;20075;-79
2023/06/03 04:13:58;;;;;;;20.05;11.38;;;14.00;99.90;;;;;;5059917;28;20043;-79
2023/06/03 04:16:58;;;;;;;18.00;10.05;;;14.00;99.90;;;;;;5063720;28;20489;-78
2023/06/03 04:19:32;;;;;;;16.73;10.27;;;14.00;99.90;;;;;;5059541;28;20045;-79
2023/06/03 04:21:59;;;;;;;15.80;9.65;;;14.00;99.90;;;;;;5057057;28;20044;-79
2023/06/03 04:24:26;;;;;;;17.77;10.38;;;14.00;99.90;;;;;;5059301;28;20093;-78
2023/06/03 04:26:52;;;;;;;15.80;10.52;;;14.00;99.90;;;;;;5056461;28;20021;-78
2023/06/03 04:29:18;;;;;;;22.73;10.20;;;14.00;99.90;;;;;;5057841;28;20096;-78
2023/06/03 04:31:44;;;;;;;22.85;12.02;;;13.90;99.90;;;;;;5038047;28;20079;-79
2023/06/03 04:34:10;;;;;;;16.27;10.52;;;13.90;99.90;;;;;;5061342;28;20032;-78
2023/06/03 04:36:35;;;;;;;19.00;9.88;;;13.90;99.90;;;;;;5065376;28;20495;-78
2023/06/03 04:39:05;;;;;;;16.33;10.10;;;14.00;99.90;;;;;;5062436;28;20464;-79
2023/06/03 04:41:32;;;;;;;14.65;9.40;;;14.00;99.90;;;;;;5046570;28;20481;-78
2023/06/03 04:44:01;;;;;;;17.52;10.40;;;14.00;99.90;;;;;;5059218;28;20056;-78
2023/06/03 04:46:31;;;;;;;14.65;10.18;;;13.90;99.90;;;;;;5053032;28;20021;-78
2023/06/03 04:49:01;;;;;;;18.65;10.50;;;14.00;99.90;;;;;;5063179;28;20024;-78
2023/06/03 04:51:27;;;;;;;14.75;9.18;;;14.00;99.90;;;;;;5056175;28;20027;-79
2023/06/03 04:53:57;;;;;;;15.48;8.65;;;14.00;99.90;;;;;;5061812;28;20439;-78
2023/06/03 04:56:24;;;;;;;17.30;8.85;;;14.00;99.90;;;;;;5052511;28;20028;-79
2023/06/03 04:58:54;;;;;;;16.95;9.82;;;14.00;99.90;;;;;;5063132;28;20028;-78
2023/06/03 05:01:24;;;;;;;14.60;8.52;;;14.10;99.90;;;;;;5062998;28;20040;-79
2023/06/03 05:03:51;;;;;;;13.98;8.85;;;14.10;99.90;;;;;;5058748;28;20020;-79
2023/06/03 05:06:17;;;;;;;15.38;8.88;;;14.20;99.90;;;;;;5059309;28;20032;-79
2023/06/03 05:08:43;;;;;;;14.82;9.88;;;14.20;99.90;;;;;;5055560;28;20094;-78
2023/06/03 05:11:09;;;;;;;14.52;9.80;;;14.30;99.90;;;;;;5055824;28;20060;-78
2023/06/03 05:13:35;;;;;;;15.80;10.10;;;14.30;99.90;;;;;;5064063;28;20017;-78
2023/06/03 05:16:01;;;;;;;16.58;9.70;;;14.40;99.90;;;;;;5055832;28;20041;-78
2023/06/03 05:18:26;;;;;;;15.10;8.65;;;14.40;99.90;;;;;;5058775;28;20038;-78
2023/06/03 05:20:52;;;;;;;20.90;9.90;;;14.40;99.90;;;;;;5045778;28;20131;-78
2023/06/03 05:23:17;;;;;;;20.02;9.50;;;14.40;99.90;;;;;;5058278;28;20377;-78
2023/06/03 05:25:43;;;;;;;15.98;8.38;;;14.40;99.90;;;;;;5062984;28;20531;-78
2023/06/03 05:28:11;;;;;;;16.00;8.85;;;14.50;99.90;;;;;;5054617;28;20033;-77
2023/06/03 05:30:36;;;;;;;13.30;7.97;;;14.50;99.90;;;;;;5059525;28;20579;-77
2023/06/03 05:33:02;;;;;;;17.70;8.57;;;14.50;99.90;;;;;;5040150;28;20115;-75
2023/06/03 05:35:28;;;;;;;14.10;8.23;;;14.50;99.90;;;;;;5055699;28;20099;-74
2023/06/03 05:37:54;;;;;;;14.20;8.18;;;14.40;99.90;;;;;;5051853;28;20249;-75
2023/06/03 05:40:19;;;;;;;18.02;7.63;;;14.50;99.90;;;;;;5058695;28;20094;-75
2023/06/03 05:42:47;;;;;;;13.45;7.45;;;14.50;99.90;;;;;;5058346;28;20029;-75
2023/06/03 05:45:13;;;;;;;16.38;8.02;;;14.50;99.90;;;;;;5067486;28;20021;-74
2023/06/03 05:47:39;;;;;;;14.63;7.53;;;14.50;99.90;;;;;;5061300;28;20116;-73
2023/06/03 05:50:06;;;;;;;10.77;7.32;;;14.60;99.90;;;;;;5057179;28;20027;-74
2023/06/03 05:52:31;;;;;;;11.80;7.13;;;14.60;99.90;;;;;;5045869;28;20029;-74
2023/06/03 05:54:57;;;;;;;16.23;8.10;;;14.60;99.90;;;;;;5055777;28;20515;-79
2023/06/03 05:57:26;;;;;;;14.45;7.57;;;14.70;99.90;;;;;;5062101;28;20029;-79
2023/06/03 05:59:51;;;;;;;14.15;6.45;;;14.80;99.90;;;;;;5064304;28;20055;-77
2023/06/03 06:02:20;;;;;;;10.98;6.75;;;14.80;99.90;;;;;;5060900;28;20516;-76
2023/06/03 06:04:46;;;;;;;10.30;6.25;;;14.80;99.90;;;;;;5064869;28;20028;-78
2023/06/03 06:07:12;;;;;;;11.00;6.40;;;14.70;99.90;;;;;;5065277;28;20031;-78
2023/06/03 06:09:38;;;;;;;9.77;6.40;;;14.80;99.90;;;;;;5059510;28;20090;-77
2023/06/03 06:12:04;;;;;;;9.23;5.55;;;14.90;99.90;;;;;;5063523;28;20032;-78
2023/06/03 06:14:30;;;;;;;12.25;5.80;;;14.90;99.90;;;;;;5058664;28;20370;-79
2023/06/03 06:16:56;;;;;;;10.82;5.97;;;15.00;99.90;;;;;;5063029;28;20096;-79
2023/06/03 06:19:23;;;;;;;9.90;6.40;;;15.00;99.90;;;;;;5059182;28;20131;-78
2023/06/03 06:21:49;;;;;;;12.43;6.25;;;15.20;99.90;;;;;;5062051;28;20025;-79
2023/06/03 06:24:16;;;;;;;11.30;5.70;;;15.20;99.90;;;;;;5058569;28;20044;-77
2023/06/03 06:26:42;;;;;;;11.77;5.40;;;15.20;99.90;;;;;;5060188;28;20044;-79
2023/06/03 06:29:08;;;;;;;11.10;5.70;;;15.30;99.90;;;;;;5059004;28;20033;-79
2023/06/03 06:31:33;;;;;;;8.07;4.93;;;15.30;99.90;;;;;;5061309;28;20036;-79
2023/06/03 06:34:00;;;;;;;9.93;6.20;;;15.30;99.90;;;;;;5062742;28;20432;-79
2023/06/03 06:36:49;;;;;;;6.35;5.00;;;15.40;99.90;;;;;;5056417;28;20055;-79
2023/06/03 06:39:33;;;;;;;12.13;5.95;;;15.50;99.90;;;;;;5058497;28;20131;-79
2023/06/03 06:42:13;;;;;;;8.65;5.13;;;15.60;99.90;;;;;;5062231;28;20035;-79
2023/06/03 06:44:49;;;;;;;14.10;5.07;;;15.70;99.90;;;;;;5059841;28;20416;-79
2023/06/03 06:47:23;;;;;;;8.57;5.13;;;15.80;99.90;;;;;;5062823;28;20628;-79
2023/06/03 06:49:50;;;;;;;9.30;4.95;;;16.00;99.90;;;;;;5058625;28;20035;-78
2023/06/03 06:52:16;;;;;;;10.27;5.43;;;16.10;99.90;;;;;;5061173;28;20039;-79
2023/06/03 06:54:42;;;;;;;9.50;5.07;;;16.10;99.90;;;;;;5062292;28;20021;-79
2023/06/03 06:57:08;;;;;;;9.68;4.53;;;16.30;99.90;;;;;;5058637;28;20021;-79
2023/06/03 06:59:34;;;;;;;7.57;4.53;;;16.50;99.90;;;;;;5063182;28;20511;-79
2023/06/03 07:02:00;;;;;;;8.55;4.05;;;16.70;99.90;;;;;;5059018;28;20366;-79
2023/06/03 07:04:25;;;;;;;7.15;4.25;;;16.80;99.90;;;;;;5058774;28;20060;-79
2023/06/03 07:06:52;;;;;;;9.88;4.40;;;17.00;99.90;;;;;;5056731;28;20017;-77
2023/06/03 07:09:18;;;;;;;7.60;4.57;;;17.00;99.90;;;;;;5065154;28;20029;-77
2023/06/03 07:11:45;;;;;;;7.85;4.47;;;17.10;99.90;;;;;;5057143;28;20587;-80
2023/06/03 07:14:11;;;;;;;8.43;4.32;;;17.10;99.90;;;;;;5064905;28;20079;-79
2023/06/03 07:16:38;;;;;;;6.03;4.13;;;17.30;99.90;;;;;;5060949;28;20028;-80
2023/06/03 07:19:04;;;;;;;11.90;4.50;;;17.20;99.90;;;;;;5061247;28;20068;-80
2023/06/03 07:21:30;;;;;;;7.47;4.00;;;17.30;99.90;;;;;;5057823;28;20028;-80
2023/06/03 07:23:56;;;;;;;5.05;3.55;;;17.40;99.90;;;;;;5047991;28;20029;-78
2023/06/03 07:26:26;;;;;;;6.53;3.63;;;17.50;99.90;;;;;;5055902;28;20105;-80
2023/06/03 07:28:51;;;;;;;10.10;3.60;;;17.60;99.90;;;;;;5056157;28;20020;-81
2023/06/03 07:31:17;;;;;;;4.07;3.38;;;17.80;99.90;;;;;;5056299;28;20377;-80
2023/06/03 07:33:51;;;;;;;7.05;3.28;;;18.10;99.90;;;;;;5063927;28;20035;-81
2023/06/03 07:36:19;;;;;;;7.57;2.95;;;18.20;99.90;;;;;;5039117;28;20068;-80
2023/06/03 07:38:59;;;;;;;7.22;3.67;;;18.40;99.90;;;;;;5059092;28;20024;-80
2023/06/03 07:41:37;;;;;;;6.35;3.00;;;18.50;99.90;;;;;;5059270;28;20480;-81
2023/06/03 07:44:11;;;;;;;4.10;2.63;;;18.70;99.90;;;;;;5059882;28;20088;-80
2023/06/03 07:46:45;;;;;;;7.25;2.83;;;18.80;99.90;;;;;;5065207;28;20025;-80
2023/06/03 07:49:16;;;;;;;6.13;3.05;;;18.90;99.90;;;;;;5056609;28;20126;-80
2023/06/03 07:51:48;;;;;;;6.75;2.92;;;18.80;99.90;;;;;;5065360;28;20052;-80
2023/06/03 07:54:15;;;;;;;8.65;2.67;;;19.00;99.90;;;;;;5059982;28;20067;-79
2023/06/03 07:56:41;;;;;;;6.38;2.22;;;19.20;99.90;;;;;;5063660;28;20173;-80
2023/06/03 07:59:10;;;;;;;8.90;2.78;;;19.50;99.90;;;;;;5056822;28;20041;-80
2023/06/03 08:01:36;;;;;;;6.97;2.55;;;19.60;99.90;;;;;;5062406;28;20069;-79
2023/06/03 08:04:26;;;;;;;5.97;2.28;;;19.70;99.90;;;;;;5058026;28;20381;-79
2023/06/03 08:06:53;;;;;;;7.47;1.92;;;19.80;99.90;;;;;;5056969;28;20503;-79
2023/06/03 08:09:33;;;;;;;7.55;2.25;;;20.00;99.90;;;;;;5061160;28;20025;-79
2023/06/03 08:12:02;;;;;;;6.85;2.00;;;20.10;99.90;;;;;;5058185;28;20108;-81
2023/06/03 08:14:30;;;;;;;6.05;1.88;;;20.00;99.90;;;;;;5061629;28;20047;-80
2023/06/03 08:17:02;;;;;;;9.52;2.20;;;20.10;99.90;;;;;;5056953;28;20477;-78
2023/06/03 08:19:28;;;;;;;8.90;1.90;;;20.20;99.90;;;;;;5061050;28;20036;-78
2023/06/03 08:21:54;;;;;;;6.10;1.85;;;20.40;99.90;;;;;;5060509;28;20043;-78
2023/06/03 08:24:19;;;;;;;10.32;1.98;;;20.50;99.90;;;;;;5058526;28;20029;-78
2023/06/03 08:26:45;;;;;;;11.07;1.95;;;20.50;98.90;;;;;;5057679;28;20544;-77
2023/06/03 08:29:12;;;;;;;2.63;1.45;;;20.70;98.90;;;;;;5058283;28;20128;-77
2023/06/03 08:31:38;;;;;;;3.15;1.77;;;20.80;98.90;;;;;;5059151;28;20016;-76
2023/06/03 08:34:04;;;;;;;4.38;1.67;;;20.80;97.90;;;;;;5057774;28;20036;-76
2023/06/03 08:36:31;;;;;;;7.07;1.67;;;20.90;96.80;;;;;;5058640;28;20472;-77
2023/06/03 08:38:58;;;;;;;3.05;1.30;;;20.90;97.10;;;;;;5061928;28;20416;-75
2023/06/03 08:41:28;;;;;;;4.65;1.50;;;20.90;95.10;;;;;;5057020;28;20107;-76
2023/06/03 08:44:02;;;;;;;5.43;1.40;;;20.90;95.60;;;;;;5055645;28;20045;-76
2023/06/03 08:47:00;;;;;;;4.72;1.60;;;21.20;95.80;;;;;;5055115;28;20032;-74
2023/06/03 08:49:40;;;;;;;4.50;1.33;;;21.40;95.40;;;;;;5056422;28;20487;-74
2023/06/03 08:52:08;;;;;;;6.00;1.50;;;21.40;92.80;;;;;;5058243;28;20046;-74
2023/06/03 08:54:37;;;;;;;6.57;1.30;;;21.50;92.80;;;;;;5054249;28;20572;-77
2023/06/03 08:57:10;;;;;;;3.70;1.65;;;21.40;93.60;;;;;;5055829;28;20489;-74
2023/06/03 08:59:42;;;;;;;4.95;1.48;;;21.50;92.00;;;;;;5056932;28;20083;-74
2023/06/03 09:02:14;;;;;;;2.00;1.23;;;21.70;93.40;;;;;;5057165;28;20024;-75
2023/06/03 09:04:41;;;;;;;4.18;1.55;;;21.70;92.70;;;;;;5062366;28;20063;-75
2023/06/03 09:07:09;;;;;;;5.60;1.40;;;22.00;93.10;;;;;;5053289;28;20055;-75
2023/06/03 09:09:36;;;;;;;3.97;1.38;;;22.00;93.10;;;;;;5056613;28;20456;-75
2023/06/03 09:12:03;;;;;;;3.53;1.48;;;22.10;91.70;;;;;;5056432;28;20531;-75
2023/06/03 09:14:30;;;;;;;4.22;1.38;;;22.20;92.90;;;;;;5061193;28;20513;-75
2023/06/03 09:16:56;;;;;;;4.53;1.55;;;22.30;92.80;;;;;;5056263;28;20040;-75
2023/06/03 09:19:29;;;;;;;2.38;1.55;;;22.50;91.60;;;;;;5063412;28;20045;-75
2023/06/03 09:21:59;;;;;;;;;;;22.70;92.00;;;;;;5059500;28;20424;-76
2023/06/03 09:24:26;;;;;;;5.47;1.85;;;22.70;90.30;;;;;;5036455;28;19916;-75
2023/06/03 09:26:52;;;;;;;9.52;2.72;;;22.90;90.60;;;;;;5065914;28;20021;-77
2023/06/03 09:29:20;;;;;;;3.17;1.50;;;23.10;92.00;;;;;;5061277;28;20040;-78
2023/06/03 09:31:50;;;;;;;5.22;1.77;;;23.10;90.60;;;;;;5055182;28;20408;-75
2023/06/03 09:34:16;;;;;;;6.45;1.80;;;23.20;92.30;;;;;;5060001;28;20452;-75
2023/06/03 09:36:47;;;;;;;12.10;2.05;;;23.40;89.40;;;;;;5044346;28;20021;-74
2023/06/03 09:39:17;;;;;;;5.38;1.70;;;23.50;90.10;;;;;;5060259;28;20052;-74
2023/06/03 09:41:44;;;;;;;3.33;1.30;;;23.50;91.60;;;;;;5062809;28;20104;-75
2023/06/03 09:44:10;;;;;;;1.77;1.25;;;23.40;91.10;;;;;;5061297;28;20068;-77
2023/06/03 09:46:36;;;;;;;3.60;1.63;;;23.20;91.10;;;;;;5062258;28;20017;-77
2023/06/03 09:49:12;;;;;;;3.50;1.45;;;23.30;88.80;;;;;;5059708;28;20033;-79
2023/06/03 09:51:46;;;;;;;5.57;1.98;;;23.40;89.20;;;;;;5064724;28;20120;-78
2023/06/03 09:54:17;;;;;;;4.82;1.80;;;23.40;91.00;;;;;;5043612;28;20391;-75
2023/06/03 09:56:45;;;;;;;2.70;1.52;;;23.50;91.50;;;;;;5059728;28;20406;-79
2023/06/03 09:59:25;;;;;;;3.92;1.50;;;23.50;90.00;;;;;;5044161;28;20040;-77
2023/06/03 10:01:53;;;;;;;5.53;1.65;;;23.60;91.40;;;;;;5058757;28;20027;-75
2023/06/03 10:04:23;;;;;;;8.35;2.10;;;23.50;85.10;;;;;;5066431;28;20031;-75
2023/06/03 10:07:18;;;;;;;3.00;1.88;;;23.40;88.40;;;;;;5059924;28;20047;-75
2023/06/03 10:09:46;;;;;;;5.32;1.45;;;23.30;85.20;;;;;;5043938;28;20520;-77
2023/06/03 10:12:14;;;;;;;4.57;1.80;;;23.50;89.30;;;;;;5068646;28;20047;-83
2023/06/03 10:14:49;;;;;;;5.65;1.80;;;23.50;90.00;;;;;;5064365;28;20481;-78
2023/06/03 10:17:19;;;;;;;5.18;1.60;;;23.40;88.10;;;;;;5064790;28;20032;-77
2023/06/03 10:19:46;;;;;;;4.18;1.38;;;23.50;87.20;;;;;;5065334;28;20037;-86
2023/06/03 10:22:15;;;;;;;4.00;2.13;;;23.60;87.90;;;;;;5060345;28;20100;-83
2023/06/03 10:24:45;;;;;;;5.20;1.52;;;23.60;88.90;;;;;;5060443;28;20086;-86
2023/06/03 10:27:12;;;;;;;2.95;1.48;;;23.60;88.10;;;;;;5058156;28;20028;-78
2023/06/03 10:29:38;;;;;;;4.47;1.88;;;23.70;90.30;;;;;;5048050;28;20033;-78
2023/06/03 10:32:06;;;;;;;3.80;2.10;;;23.60;86.60;;;;;;5056617;28;20021;-84
2023/06/03 10:34:37;;;;;;;3.38;1.42;;;23.50;85.80;;;;;;5060595;28;20032;-80
2023/06/03 10:37:04;;;;;;;3.15;2.03;;;23.70;86.10;;;;;;5042729;28;20017;-75
2023/06/03 10:39:32;;;;;;;2.35;1.77;;;23.80;89.50;;;;;;5046440;28;20516;-80
2023/06/03 10:42:05;;;;;;;2.60;1.70;;;23.80;90.00;;;;;;5059685;28;20107;-80
2023/06/03 10:44:32;;;;;;;5.03;1.80;;;24.10;89.50;;;;;;5061964;28;20417;-81
2023/06/03 10:47:13;;;;;;;5.97;1.90;;;24.20;90.60;;;;;;5060826;28;20543;-84
2023/06/03 10:49:47;;;;;;;2.20;1.50;;;24.40;88.80;;;;;;5048851;28;20056;-81
2023/06/03 10:52:14;;;;;;;3.05;1.65;;;24.50;90.50;;;;;;5059416;28;20082;-84
2023/06/03 10:55:28;;;;;;;4.00;1.90;;;24.60;86.30;;;;;;5061139;28;20029;-79
2023/06/03 10:58:23;;;;;;;2.45;1.35;;;24.60;90.00;;;;;;5023671;28;20037;-77
2023/06/03 11:01:03;;;;;;;4.60;1.80;;;24.60;88.50;;;;;;5051590;28;20044;-80
2023/06/03 11:03:59;;;;;;;2.97;2.20;;;24.50;83.70;;;;;;5062692;28;20516;-81
2023/06/03 11:06:28;;;;;;;2.40;1.48;;;24.50;85.30;;;;;;5063529;28;20100;-82
2023/06/03 11:08:57;;;;;;;5.30;2.10;;;24.50;85.80;;;;;;5050125;28;20429;-84
2023/06/03 11:11:41;;;;;;;4.78;2.00;;;24.40;84.20;;;;;;5062383;28;20091;-81
2023/06/03 11:14:50;;;;;;;7.63;2.42;;;24.40;87.10;;;;;;5057555;28;20115;-86
2023/06/03 11:17:18;;;;;;;6.05;1.85;;;24.60;84.20;;;;;;5055040;28;20040;-81
2023/06/03 11:19:44;;;;;;;5.43;1.77;;;24.70;85.70;;;;;;5041853;28;20032;-78
2023/06/03 11:22:13;;;;;;;5.18;1.80;;;24.80;85.90;;;;;;5039108;28;20505;-81
2023/06/03 11:24:42;;;;;;;4.28;2.00;;;24.60;85.10;;;;;;5065297;28;20495;-87
2023/06/03 11:27:14;;;;;;;5.40;2.20;;;24.60;87.60;;;;;;5048064;28;20032;-84
2023/06/03 11:29:51;;;;;;;4.83;2.23;;;24.30;83.00;;;;;;5059722;28;20481;-83
2023/06/03 11:32:35;;;;;;;6.47;2.33;;;24.30;83.50;;;;;;5059716;28;20487;-77
2023/06/03 11:35:04;;;;;;;4.00;1.98;;;24.40;83.20;;;;;;5061256;28;20103;-78
2023/06/03 11:37:48;;;;;;;5.72;1.80;;;24.50;87.80;;;;;;5058693;28;20024;-76
2023/06/03 11:40:20;;;;;;;5.25;1.50;;;24.70;87.00;;;;;;5058620;28;20036;-75
2023/06/03 11:42:52;;;;;;;2.00;1.50;;;24.90;81.90;;;;;;5028883;28;20021;-76
2023/06/03 11:45:21;;;;;;;2.58;1.80;;;24.90;81.90;;;;;;5056145;28;20104;-73
2023/06/03 11:47:48;;;;;;;2.53;2.08;;;24.80;82.40;;;;;;5054610;28;20461;-75
2023/06/03 11:50:14;;;;;;;4.72;1.77;;;24.90;84.10;;;;;;5052391;28;20066;-74
2023/06/03 11:52:40;;;;;;;5.30;1.77;;;25.20;84.80;;;;;;5052386;28;20029;-74
2023/06/03 11:55:06;;;;;;;2.45;1.73;;;25.20;89.20;;;;;;5052000;28;20103;-74
2023/06/03 11:57:33;;;;;;;4.57;2.00;;;25.30;80.10;;;;;;5052085;28;20046;-74
2023/06/03 12:00:10;;;;;;;2.63;1.38;;;25.40;84.30;;;;;;5051276;28;20033;-74
2023/06/03 12:02:55;;;;;;;5.32;2.40;;;25.40;83.30;;;;;;5034528;28;20051;-74
2023/06/03 12:05:21;;;;;;;5.57;1.92;;;25.30;86.10;;;;;;5034249;28;20036;-74
2023/06/03 12:07:58;;;;;;;5.63;1.77;;;25.40;81.80;;;;;;5052963;28;20029;-75
2023/06/03 12:10:24;;;;;;;2.38;1.80;;;25.30;81.60;;;;;;5052515;28;20027;-74
2023/06/03 12:12:54;;;;;;;3.38;1.77;;;25.30;81.50;;;;;;5051321;28;20029;-75
2023/06/03 12:15:20;;;;;;;2.20;1.40;;;25.30;82.20;;;;;;5053027;28;20020;-75
2023/06/03 12:17:46;;;;;;;2.70;1.90;;;25.50;86.30;;;;;;5052490;28;20086;-76
2023/06/03 12:20:24;;;;;;;4.18;2.00;;;25.50;78.40;;;;;;5051980;28;20025;-74
2023/06/03 12:23:01;;;;;;;3.30;1.50;;;25.50;83.80;;;;;;5053387;28;20028;-75
2023/06/03 12:25:27;;;;;;;3.72;1.92;;;25.50;76.60;;;;;;5054186;28;20028;-77
2023/06/03 12:27:54;;;;;;;7.28;1.60;;;25.20;81.10;;;;;;5052826;28;20501;-76
2023/06/03 12:30:31;;;;;;;3.08;1.60;;;25.50;82.70;;;;;;5052225;28;20028;-76
2023/06/03 12:32:59;;;;;;;4.63;1.83;;;25.60;78.30;;;;;;5052324;28;20059;-78
2023/06/03 12:35:26;;;;;;;16.52;2.72;;;25.60;81.90;;;;;;5050885;28;20111;-78
2023/06/03 12:38:05;;;;;;;3.22;1.67;;;25.70;79.60;;;;;;5055475;28;20028;-78
2023/06/03 12:40:32;;;;;;;6.60;1.90;;;25.90;79.80;;;;;;5049951;28;20087;-79
2023/06/03 12:42:58;;;;;;;6.70;2.13;;;25.80;81.40;;;;;;5049037;28;20107;-78
2023/06/03 12:45:43;;;;;;;6.78;2.00;;;25.80;79.00;;;;;;5051458;28;20115;-78
2023/06/03 12:48:09;;;;;;;4.65;1.75;;;25.70;80.40;;;;;;5046929;28;20411;-78
2023/06/03 12:50:35;;;;;;;4.55;2.20;;;25.70;77.80;;;;;;5048582;28;20112;-77